sim
Sign-in with your pilot id or email,
or register
Callsign
Passwort

Schedule Details

Flight Number: RYR4010 (2)
Departure: Krakow John Paul II International Airport (EPKK) at 18:10
Arrival: Gothenburg Landvetter Airport (ESGG) at 20:05
Route: Ryanair Passenger Schedule. Enter filed route here before submitting Pirep.

Weather Information
Getting current METAR information for EPKK 291300Z 24013KT 9999 -RA FEW033 BKN046 12/08 Q1014
Getting current METAR information for ESGG 291250Z 21003KT 9999 SCT035 09/07 Q1004

Schedule Frequency

Route Map